This is the latest recevied weather packets stored in our database for station/object SP9INZ-13. If no packets are shown the sender has not sent any weather packets the latest 10 day(s).
| Time | Temp. | Humidity | Pressure | Rain* | Wind** | Luminosity | Snow |
|---|---|---|---|---|---|---|---|
| 1777649568 | 23.33° C | 34% | 1027.9 hPa | - | - | - | - |
| 1777648611 | 22.22° C | 36% | 1028.3 hPa | - | - | - | - |
| 1777647653 | 24.44° C | 32% | 1027.4 hPa | - | - | - | - |
| 1777646696 | 22.78° C | 34% | 1028 hPa | - | - | - | - |
| 1777645738 | 22.22° C | 36% | 1028.4 hPa | - | - | - | - |
| 1777644780 | 23.33° C | 34% | 1027.9 hPa | - | - | - | - |
| 1777643822 | 21.67° C | 37% | 1028.8 hPa | - | - | - | - |
| 1777642864 | 22.78° C | 35% | 1028 hPa | - | - | - | - |
| 1777641905 | 22.78° C | 36% | 1028.2 hPa | - | - | - | - |
| 1777640948 | 23.33° C | 34% | 1028.2 hPa | - | - | - | - |
| 1777639990 | 22.78° C | 34% | 1028.5 hPa | - | - | - | - |
| 1777639032 | 21.11° C | 38% | 1029.1 hPa | - | - | - | - |
| 1777638074 | 21.67° C | 36% | 1028.9 hPa | - | - | - | - |
| 1777637115 | 21.67° C | 37% | 1029.4 hPa | - | - | - | - |
| 1777636157 | 20.56° C | 38% | 1029.7 hPa | - | - | - | - |
| 1777635200 | 21.11° C | 38% | 1029.5 hPa | - | - | - | - |
| 1777634242 | 20° C | 40% | 1029.7 hPa | - | - | - | - |
| 1777633285 | 19.44° C | 40% | 1030.2 hPa | - | - | - | - |
| 1777632325 | 18.89° C | 41% | 1030.2 hPa | - | - | - | - |
| 1777631368 | 18.33° C | 42% | 1030.5 hPa | - | - | - | - |
| 1777630411 | 17.22° C | 45% | 1030.9 hPa | - | - | - | - |
| 1777629451 | 17.22° C | 45% | 1031.3 hPa | - | - | - | - |
| 1777628493 | 17.78° C | 43% | 1030.7 hPa | - | - | - | - |
| 1777627536 | 16.11° C | 46% | 1031.7 hPa | - | - | - | - |
| 1777626577 | 16.11° C | 46% | 1031.6 hPa | - | - | - | - |
* Rain since midnight (hover to see other rain measurements)
** Current wind speed in m/s (hover to see current wind gust speed)